sensor_id;sensor_type;location;lat;lon;timestamp;P1;durP1;ratioP1;P2;durP2;ratioP2
68050;SDS011;54839;51.364;7.246;2022-09-16T00:00:20;4.30;;;1.37;;
68050;SDS011;54839;51.364;7.246;2022-09-16T00:02:50;3.27;;;1.20;;
68050;SDS011;54839;51.364;7.246;2022-09-16T00:05:17;6.17;;;1.60;;
68050;SDS011;54839;51.364;7.246;2022-09-16T00:07:42;3.80;;;1.30;;
68050;SDS011;54839;51.364;7.246;2022-09-16T00:10:08;4.90;;;1.57;;
68050;SDS011;54839;51.364;7.246;2022-09-16T00:12:34;5.17;;;1.20;;
68050;SDS011;54839;51.364;7.246;2022-09-16T00:15:00;5.27;;;1.60;;
68050;SDS011;54839;51.364;7.246;2022-09-16T00:17:26;3.57;;;2.30;;
68050;SDS011;54839;51.364;7.246;2022-09-16T00:19:54;6.30;;;1.73;;
68050;SDS011;54839;51.364;7.246;2022-09-16T00:22:19;2.63;;;1.63;;
68050;SDS011;54839;51.364;7.246;2022-09-16T00:24:47;3.60;;;1.70;;
68050;SDS011;54839;51.364;7.246;2022-09-16T00:27:13;4.60;;;1.80;;
68050;SDS011;54839;51.364;7.246;2022-09-16T00:29:39;6.73;;;1.67;;
68050;SDS011;54839;51.364;7.246;2022-09-16T00:32:05;6.20;;;1.90;;
68050;SDS011;54839;51.364;7.246;2022-09-16T00:34:30;6.70;;;2.03;;
68050;SDS011;54839;51.364;7.246;2022-09-16T00:36:56;3.33;;;1.43;;
68050;SDS011;54839;51.364;7.246;2022-09-16T00:39:22;9.60;;;2.10;;
68050;SDS011;54839;51.364;7.246;2022-09-16T00:41:48;5.23;;;2.17;;
68050;SDS011;54839;51.364;7.246;2022-09-16T00:45:00;3.43;;;2.10;;
68050;SDS011;54839;51.364;7.246;2022-09-16T00:50:09;5.40;;;2.93;;
68050;SDS011;54839;51.364;7.246;2022-09-16T00:52:39;5.23;;;2.10;;
68050;SDS011;54839;51.364;7.246;2022-09-16T00:55:07;5.07;;;1.87;;
68050;SDS011;54839;51.364;7.246;2022-09-16T00:57:35;3.50;;;2.10;;
68050;SDS011;54839;51.364;7.246;2022-09-16T01:00:03;4.07;;;2.67;;
68050;SDS011;54839;51.364;7.246;2022-09-16T01:02:31;6.87;;;2.93;;
68050;SDS011;54839;51.364;7.246;2022-09-16T01:04:58;3.97;;;1.90;;
68050;SDS011;54839;51.364;7.246;2022-09-16T01:07:35;4.97;;;2.23;;
68050;SDS011;54839;51.364;7.246;2022-09-16T01:10:06;3.30;;;1.93;;
68050;SDS011;54839;51.364;7.246;2022-09-16T01:12:32;4.43;;;2.33;;
68050;SDS011;54839;51.364;7.246;2022-09-16T01:14:58;2.97;;;2.30;;
68050;SDS011;54839;51.364;7.246;2022-09-16T01:35:03;7.20;;;2.10;;
68050;SDS011;54839;51.364;7.246;2022-09-16T01:43:31;4.90;;;2.00;;
68050;SDS011;54839;51.364;7.246;2022-09-16T01:46:17;5.70;;;2.37;;
68050;SDS011;54839;51.364;7.246;2022-09-16T01:48:59;9.30;;;2.90;;
68050;SDS011;54839;51.364;7.246;2022-09-16T01:51:44;4.97;;;2.20;;
68050;SDS011;54839;51.364;7.246;2022-09-16T01:54:20;3.67;;;2.00;;
68050;SDS011;54839;51.364;7.246;2022-09-16T01:59:44;7.57;;;2.37;;
68050;SDS011;54839;51.364;7.246;2022-09-16T02:05:15;9.57;;;2.00;;
68050;SDS011;54839;51.364;7.246;2022-09-16T02:07:48;5.90;;;2.23;;
68050;SDS011;54839;51.364;7.246;2022-09-16T02:10:23;11.33;;;3.07;;
68050;SDS011;54839;51.364;7.246;2022-09-16T02:12:53;5.40;;;3.13;;
68050;SDS011;54839;51.364;7.246;2022-09-16T02:15:23;6.23;;;2.27;;
68050;SDS011;54839;51.364;7.246;2022-09-16T02:17:52;5.23;;;1.50;;
68050;SDS011;54839;51.364;7.246;2022-09-16T02:20:39;6.00;;;1.83;;
68050;SDS011;54839;51.364;7.246;2022-09-16T02:23:13;3.73;;;1.50;;
68050;SDS011;54839;51.364;7.246;2022-09-16T02:25:43;5.33;;;2.20;;
68050;SDS011;54839;51.364;7.246;2022-09-16T02:28:12;5.37;;;1.67;;
68050;SDS011;54839;51.364;7.246;2022-09-16T02:30:43;10.20;;;2.10;;
68050;SDS011;54839;51.364;7.246;2022-09-16T02:33:13;5.83;;;2.10;;
68050;SDS011;54839;51.364;7.246;2022-09-16T02:35:40;8.23;;;2.77;;
68050;SDS011;54839;51.364;7.246;2022-09-16T02:38:17;8.87;;;2.80;;
68050;SDS011;54839;51.364;7.246;2022-09-16T02:40:53;4.23;;;1.87;;
68050;SDS011;54839;51.364;7.246;2022-09-16T02:43:23;7.10;;;2.70;;
68050;SDS011;54839;51.364;7.246;2022-09-16T02:46:06;5.83;;;2.47;;
68050;SDS011;54839;51.364;7.246;2022-09-16T02:48:47;5.47;;;2.43;;
68050;SDS011;54839;51.364;7.246;2022-09-16T02:54:03;4.47;;;1.80;;
68050;SDS011;54839;51.364;7.246;2022-09-16T02:56:36;4.30;;;1.80;;
68050;SDS011;54839;51.364;7.246;2022-09-16T02:59:05;6.03;;;1.97;;
68050;SDS011;54839;51.364;7.246;2022-09-16T03:01:32;5.07;;;2.37;;
68050;SDS011;54839;51.364;7.246;2022-09-16T03:04:05;4.27;;;1.63;;
68050;SDS011;54839;51.364;7.246;2022-09-16T03:06:31;3.00;;;1.80;;
68050;SDS011;54839;51.364;7.246;2022-09-16T03:09:00;6.80;;;1.33;;
68050;SDS011;54839;51.364;7.246;2022-09-16T03:19:58;7.47;;;1.90;;
68050;SDS011;54839;51.364;7.246;2022-09-16T03:22:50;3.17;;;1.50;;
68050;SDS011;54839;51.364;7.246;2022-09-16T03:28:09;6.10;;;2.20;;
68050;SDS011;54839;51.364;7.246;2022-09-16T03:30:37;5.07;;;2.13;;
68050;SDS011;54839;51.364;7.246;2022-09-16T03:33:33;8.77;;;2.50;;
68050;SDS011;54839;51.364;7.246;2022-09-16T03:36:24;6.43;;;2.50;;
68050;SDS011;54839;51.364;7.246;2022-09-16T03:38:57;9.27;;;2.20;;
68050;SDS011;54839;51.364;7.246;2022-09-16T03:41:26;5.07;;;2.17;;
68050;SDS011;54839;51.364;7.246;2022-09-16T03:43:55;10.13;;;2.87;;
68050;SDS011;54839;51.364;7.246;2022-09-16T03:46:22;4.70;;;2.00;;
68050;SDS011;54839;51.364;7.246;2022-09-16T03:48:50;5.33;;;1.97;;
68050;SDS011;54839;51.364;7.246;2022-09-16T03:51:16;9.17;;;2.73;;
68050;SDS011;54839;51.364;7.246;2022-09-16T03:53:42;5.07;;;2.30;;
68050;SDS011;54839;51.364;7.246;2022-09-16T03:56:07;6.70;;;2.20;;
68050;SDS011;54839;51.364;7.246;2022-09-16T03:58:33;4.10;;;2.07;;
68050;SDS011;54839;51.364;7.246;2022-09-16T04:00:59;9.10;;;2.37;;
68050;SDS011;54839;51.364;7.246;2022-09-16T04:03:24;2.70;;;1.87;;
68050;SDS011;54839;51.364;7.246;2022-09-16T04:05:53;5.70;;;2.23;;
68050;SDS011;54839;51.364;7.246;2022-09-16T04:08:19;2.83;;;1.73;;
68050;SDS011;54839;51.364;7.246;2022-09-16T04:10:52;5.87;;;1.90;;
68050;SDS011;54839;51.364;7.246;2022-09-16T04:13:20;6.07;;;2.53;;
68050;SDS011;54839;51.364;7.246;2022-09-16T04:15:45;6.00;;;2.40;;
68050;SDS011;54839;51.364;7.246;2022-09-16T04:18:11;11.80;;;2.60;;
68050;SDS011;54839;51.364;7.246;2022-09-16T04:20:36;6.60;;;2.30;;
68050;SDS011;54839;51.364;7.246;2022-09-16T04:23:02;7.70;;;2.17;;
68050;SDS011;54839;51.364;7.246;2022-09-16T04:25:28;6.83;;;2.60;;
68050;SDS011;54839;51.364;7.246;2022-09-16T04:27:54;6.07;;;2.40;;
68050;SDS011;54839;51.364;7.246;2022-09-16T04:30:20;5.17;;;1.83;;
68050;SDS011;54839;51.364;7.246;2022-09-16T04:32:45;4.23;;;2.30;;
68050;SDS011;54839;51.364;7.246;2022-09-16T04:35:11;5.10;;;2.30;;
68050;SDS011;54839;51.364;7.246;2022-09-16T04:37:36;6.23;;;1.80;;
68050;SDS011;54839;51.364;7.246;2022-09-16T04:40:02;4.17;;;2.27;;
68050;SDS011;54839;51.364;7.246;2022-09-16T04:42:28;8.17;;;2.80;;
68050;SDS011;54839;51.364;7.246;2022-09-16T04:44:54;9.57;;;2.17;;
68050;SDS011;54839;51.364;7.246;2022-09-16T04:47:19;3.00;;;2.23;;
68050;SDS011;54839;51.364;7.246;2022-09-16T04:49:45;4.80;;;2.20;;
68050;SDS011;54839;51.364;7.246;2022-09-16T04:52:10;4.63;;;1.97;;
68050;SDS011;54839;51.364;7.246;2022-09-16T04:54:36;9.03;;;2.00;;
68050;SDS011;54839;51.364;7.246;2022-09-16T04:57:02;4.97;;;1.80;;
68050;SDS011;54839;51.364;7.246;2022-09-16T04:59:27;6.50;;;2.60;;
68050;SDS011;54839;51.364;7.246;2022-09-16T05:01:53;5.00;;;2.13;;
68050;SDS011;54839;51.364;7.246;2022-09-16T05:04:19;3.60;;;2.07;;
68050;SDS011;54839;51.364;7.246;2022-09-16T05:06:44;5.07;;;2.20;;
68050;SDS011;54839;51.364;7.246;2022-09-16T05:09:10;10.30;;;1.70;;
68050;SDS011;54839;51.364;7.246;2022-09-16T05:11:38;3.30;;;1.63;;
68050;SDS011;54839;51.364;7.246;2022-09-16T05:14:05;6.90;;;3.27;;
68050;SDS011;54839;51.364;7.246;2022-09-16T05:16:32;3.97;;;2.67;;
68050;SDS011;54839;51.364;7.246;2022-09-16T05:18:59;7.30;;;3.03;;
68050;SDS011;54839;51.364;7.246;2022-09-16T05:21:27;8.67;;;2.30;;
68050;SDS011;54839;51.364;7.246;2022-09-16T05:23:53;6.70;;;3.10;;
68050;SDS011;54839;51.364;7.246;2022-09-16T05:26:24;6.00;;;2.97;;
68050;SDS011;54839;51.364;7.246;2022-09-16T05:28:51;1.97;;;1.70;;
68050;SDS011;54839;51.364;7.246;2022-09-16T05:31:21;8.00;;;2.53;;
68050;SDS011;54839;51.364;7.246;2022-09-16T05:33:53;6.20;;;1.87;;
68050;SDS011;54839;51.364;7.246;2022-09-16T05:36:19;3.67;;;2.03;;
68050;SDS011;54839;51.364;7.246;2022-09-16T05:38:44;5.83;;;3.07;;
68050;SDS011;54839;51.364;7.246;2022-09-16T05:41:10;7.17;;;1.97;;
68050;SDS011;54839;51.364;7.246;2022-09-16T05:43:36;10.90;;;2.50;;
68050;SDS011;54839;51.364;7.246;2022-09-16T05:46:03;8.70;;;2.50;;
68050;SDS011;54839;51.364;7.246;2022-09-16T05:48:30;3.90;;;2.33;;
68050;SDS011;54839;51.364;7.246;2022-09-16T05:50:57;4.57;;;2.20;;
68050;SDS011;54839;51.364;7.246;2022-09-16T05:53:28;4.93;;;2.17;;
68050;SDS011;54839;51.364;7.246;2022-09-16T05:58:25;8.07;;;3.33;;
68050;SDS011;54839;51.364;7.246;2022-09-16T06:03:37;4.33;;;1.80;;
68050;SDS011;54839;51.364;7.246;2022-09-16T06:08:37;3.40;;;2.17;;
68050;SDS011;54839;51.364;7.246;2022-09-16T06:11:05;4.20;;;2.00;;
68050;SDS011;54839;51.364;7.246;2022-09-16T06:13:32;3.70;;;1.70;;
68050;SDS011;54839;51.364;7.246;2022-09-16T06:15:58;7.33;;;2.23;;
68050;SDS011;54839;51.364;7.246;2022-09-16T06:18:25;7.20;;;2.40;;
68050;SDS011;54839;51.364;7.246;2022-09-16T06:20:52;8.07;;;3.27;;
68050;SDS011;54839;51.364;7.246;2022-09-16T06:23:18;2.47;;;1.73;;
68050;SDS011;54839;51.364;7.246;2022-09-16T06:25:44;5.00;;;2.20;;
68050;SDS011;54839;51.364;7.246;2022-09-16T06:28:10;5.50;;;2.77;;
68050;SDS011;54839;51.364;7.246;2022-09-16T06:30:36;6.87;;;2.50;;
68050;SDS011;54839;51.364;7.246;2022-09-16T06:33:02;3.80;;;2.40;;
68050;SDS011;54839;51.364;7.246;2022-09-16T06:35:28;5.47;;;2.80;;
68050;SDS011;54839;51.364;7.246;2022-09-16T06:37:54;6.23;;;2.97;;
68050;SDS011;54839;51.364;7.246;2022-09-16T06:40:20;4.33;;;2.80;;
68050;SDS011;54839;51.364;7.246;2022-09-16T06:42:46;6.53;;;2.57;;
68050;SDS011;54839;51.364;7.246;2022-09-16T06:45:12;7.93;;;2.90;;
68050;SDS011;54839;51.364;7.246;2022-09-16T06:47:37;7.43;;;3.43;;
68050;SDS011;54839;51.364;7.246;2022-09-16T06:50:03;7.90;;;3.97;;
68050;SDS011;54839;51.364;7.246;2022-09-16T06:52:29;8.83;;;4.03;;
68050;SDS011;54839;51.364;7.246;2022-09-16T06:54:55;28.47;;;5.23;;
68050;SDS011;54839;51.364;7.246;2022-09-16T06:57:21;8.20;;;4.33;;
68050;SDS011;54839;51.364;7.246;2022-09-16T06:59:48;8.30;;;5.67;;
68050;SDS011;54839;51.364;7.246;2022-09-16T07:02:14;18.30;;;5.50;;
68050;SDS011;54839;51.364;7.246;2022-09-16T07:04:40;7.10;;;4.83;;
68050;SDS011;54839;51.364;7.246;2022-09-16T07:07:06;9.40;;;5.17;;
68050;SDS011;54839;51.364;7.246;2022-09-16T07:09:32;10.30;;;5.70;;
68050;SDS011;54839;51.364;7.246;2022-09-16T07:11:58;7.00;;;6.20;;
68050;SDS011;54839;51.364;7.246;2022-09-16T07:14:25;7.73;;;6.93;;
68050;SDS011;54839;51.364;7.246;2022-09-16T07:16:51;10.93;;;6.27;;
68050;SDS011;54839;51.364;7.246;2022-09-16T07:19:17;7.80;;;6.77;;
68050;SDS011;54839;51.364;7.246;2022-09-16T07:21:43;10.50;;;8.43;;
68050;SDS011;54839;51.364;7.246;2022-09-16T07:24:10;10.03;;;7.90;;
68050;SDS011;54839;51.364;7.246;2022-09-16T07:26:37;9.70;;;7.90;;
68050;SDS011;54839;51.364;7.246;2022-09-16T07:29:05;8.90;;;7.50;;
68050;SDS011;54839;51.364;7.246;2022-09-16T07:31:35;8.83;;;7.93;;
68050;SDS011;54839;51.364;7.246;2022-09-16T07:34:02;10.33;;;8.43;;
68050;SDS011;54839;51.364;7.246;2022-09-16T07:36:30;10.30;;;8.13;;
68050;SDS011;54839;51.364;7.246;2022-09-16T07:38:58;15.20;;;8.50;;
68050;SDS011;54839;51.364;7.246;2022-09-16T07:41:25;9.87;;;8.70;;
68050;SDS011;54839;51.364;7.246;2022-09-16T07:43:53;11.47;;;8.20;;
68050;SDS011;54839;51.364;7.246;2022-09-16T07:46:20;8.73;;;7.67;;
68050;SDS011;54839;51.364;7.246;2022-09-16T07:48:47;11.17;;;7.50;;
68050;SDS011;54839;51.364;7.246;2022-09-16T07:51:21;8.13;;;7.03;;
68050;SDS011;54839;51.364;7.246;2022-09-16T07:53:52;8.07;;;6.50;;
68050;SDS011;54839;51.364;7.246;2022-09-16T07:56:23;10.00;;;6.63;;
68050;SDS011;54839;51.364;7.246;2022-09-16T07:58:50;13.17;;;7.37;;
68050;SDS011;54839;51.364;7.246;2022-09-16T08:01:17;15.40;;;6.47;;
68050;SDS011;54839;51.364;7.246;2022-09-16T08:03:43;9.47;;;6.20;;
68050;SDS011;54839;51.364;7.246;2022-09-16T08:06:19;6.53;;;5.80;;
68050;SDS011;54839;51.364;7.246;2022-09-16T08:08:47;8.60;;;6.33;;
68050;SDS011;54839;51.364;7.246;2022-09-16T08:11:15;6.40;;;5.60;;
68050;SDS011;54839;51.364;7.246;2022-09-16T08:13:41;8.87;;;6.00;;
68050;SDS011;54839;51.364;7.246;2022-09-16T08:16:09;8.60;;;5.20;;
68050;SDS011;54839;51.364;7.246;2022-09-16T08:18:40;8.97;;;4.20;;
68050;SDS011;54839;51.364;7.246;2022-09-16T08:21:10;7.13;;;4.50;;
68050;SDS011;54839;51.364;7.246;2022-09-16T08:23:38;7.77;;;5.10;;
68050;SDS011;54839;51.364;7.246;2022-09-16T08:26:05;9.10;;;5.70;;
68050;SDS011;54839;51.364;7.246;2022-09-16T08:28:32;8.80;;;5.23;;
68050;SDS011;54839;51.364;7.246;2022-09-16T08:30:58;5.97;;;5.47;;
68050;SDS011;54839;51.364;7.246;2022-09-16T08:33:25;7.83;;;5.97;;
68050;SDS011;54839;51.364;7.246;2022-09-16T08:38:32;8.40;;;4.43;;
68050;SDS011;54839;51.364;7.246;2022-09-16T08:43:44;9.10;;;5.60;;
68050;SDS011;54839;51.364;7.246;2022-09-16T08:46:32;9.90;;;6.30;;
68050;SDS011;54839;51.364;7.246;2022-09-16T08:51:51;8.30;;;6.70;;
68050;SDS011;54839;51.364;7.246;2022-09-16T08:54:23;11.47;;;6.80;;
68050;SDS011;54839;51.364;7.246;2022-09-16T08:57:05;7.80;;;7.17;;
68050;SDS011;54839;51.364;7.246;2022-09-16T08:59:39;7.60;;;6.90;;
68050;SDS011;54839;51.364;7.246;2022-09-16T09:02:31;8.23;;;7.53;;
68050;SDS011;54839;51.364;7.246;2022-09-16T09:04:59;11.13;;;8.47;;
68050;SDS011;54839;51.364;7.246;2022-09-16T09:10:29;9.57;;;6.37;;
68050;SDS011;54839;51.364;7.246;2022-09-16T09:13:25;4.63;;;4.23;;
68050;SDS011;54839;51.364;7.246;2022-09-16T09:19:07;6.27;;;5.67;;
68050;SDS011;54839;51.364;7.246;2022-09-16T09:27:13;5.03;;;4.63;;
68050;SDS011;54839;51.364;7.246;2022-09-16T09:29:45;14.97;;;7.77;;
68050;SDS011;54839;51.364;7.246;2022-09-16T09:40:57;6.33;;;3.60;;
68050;SDS011;54839;51.364;7.246;2022-09-16T09:43:55;4.27;;;3.97;;
68050;SDS011;54839;51.364;7.246;2022-09-16T09:46:43;5.50;;;4.70;;
68050;SDS011;54839;51.364;7.246;2022-09-16T09:49:12;4.77;;;4.37;;
68050;SDS011;54839;51.364;7.246;2022-09-16T09:52:06;4.80;;;4.40;;
68050;SDS011;54839;51.364;7.246;2022-09-16T09:54:39;6.67;;;3.50;;
68050;SDS011;54839;51.364;7.246;2022-09-16T09:57:18;4.83;;;3.47;;
68050;SDS011;54839;51.364;7.246;2022-09-16T10:02:43;8.67;;;2.80;;
68050;SDS011;54839;51.364;7.246;2022-09-16T10:05:28;3.87;;;3.57;;
68050;SDS011;54839;51.364;7.246;2022-09-16T10:07:56;8.57;;;3.63;;
68050;SDS011;54839;51.364;7.246;2022-09-16T10:10:40;5.60;;;2.70;;
68050;SDS011;54839;51.364;7.246;2022-09-16T10:13:19;5.03;;;2.63;;
68050;SDS011;54839;51.364;7.246;2022-09-16T10:15:46;9.43;;;3.40;;
68050;SDS011;54839;51.364;7.246;2022-09-16T10:18:13;7.40;;;2.90;;
68050;SDS011;54839;51.364;7.246;2022-09-16T10:21:00;4.50;;;2.30;;
68050;SDS011;54839;51.364;7.246;2022-09-16T10:23:37;5.03;;;2.30;;
68050;SDS011;54839;51.364;7.246;2022-09-16T10:28:56;3.37;;;2.30;;
68050;SDS011;54839;51.364;7.246;2022-09-16T10:31:34;2.50;;;1.93;;
68050;SDS011;54839;51.364;7.246;2022-09-16T10:34:02;3.93;;;1.40;;
68050;SDS011;54839;51.364;7.246;2022-09-16T10:36:31;6.20;;;1.77;;
68050;SDS011;54839;51.364;7.246;2022-09-16T10:39:00;3.97;;;1.63;;
68050;SDS011;54839;51.364;7.246;2022-09-16T10:41:27;2.50;;;1.70;;
68050;SDS011;54839;51.364;7.246;2022-09-16T10:43:57;8.07;;;1.80;;
68050;SDS011;54839;51.364;7.246;2022-09-16T10:46:25;4.17;;;1.57;;
68050;SDS011;54839;51.364;7.246;2022-09-16T10:48:54;2.97;;;1.53;;
68050;SDS011;54839;51.364;7.246;2022-09-16T10:51:26;7.13;;;2.23;;
68050;SDS011;54839;51.364;7.246;2022-09-16T10:53:55;3.53;;;2.20;;
68050;SDS011;54839;51.364;7.246;2022-09-16T10:56:23;10.93;;;2.40;;
68050;SDS011;54839;51.364;7.246;2022-09-16T10:59:00;5.07;;;1.90;;
68050;SDS011;54839;51.364;7.246;2022-09-16T11:13:30;2.00;;;1.10;;
68050;SDS011;54839;51.364;7.246;2022-09-16T11:16:02;1.90;;;1.30;;
68050;SDS011;54839;51.364;7.246;2022-09-16T11:26:35;2.37;;;0.83;;
68050;SDS011;54839;51.364;7.246;2022-09-16T11:31:58;3.20;;;1.00;;
68050;SDS011;54839;51.364;7.246;2022-09-16T11:37:02;1.33;;;1.10;;
68050;SDS011;54839;51.364;7.246;2022-09-16T11:40:04;6.00;;;2.10;;
68050;SDS011;54839;51.364;7.246;2022-09-16T11:51:18;2.90;;;1.10;;
68050;SDS011;54839;51.364;7.246;2022-09-16T11:54:23;3.80;;;1.67;;
68050;SDS011;54839;51.364;7.246;2022-09-16T11:57:06;1.37;;;0.83;;
68050;SDS011;54839;51.364;7.246;2022-09-16T11:59:37;5.03;;;1.27;;
68050;SDS011;54839;51.364;7.246;2022-09-16T12:05:10;5.20;;;1.87;;
68050;SDS011;54839;51.364;7.246;2022-09-16T12:10:58;4.37;;;1.17;;
68050;SDS011;54839;51.364;7.246;2022-09-16T12:13:46;3.50;;;2.00;;
68050;SDS011;54839;51.364;7.246;2022-09-16T12:19:54;1.90;;;1.00;;
68050;SDS011;54839;51.364;7.246;2022-09-16T12:22:05;2.77;;;1.30;;
68050;SDS011;54839;51.364;7.246;2022-09-16T12:24:36;3.87;;;1.40;;
68050;SDS011;54839;51.364;7.246;2022-09-16T12:27:57;2.30;;;1.17;;
68050;SDS011;54839;51.364;7.246;2022-09-16T12:30:18;5.57;;;1.47;;
68050;SDS011;54839;51.364;7.246;2022-09-16T12:32:53;1.13;;;1.03;;
68050;SDS011;54839;51.364;7.246;2022-09-16T12:35:33;2.10;;;1.17;;
68050;SDS011;54839;51.364;7.246;2022-09-16T12:38:03;2.00;;;1.17;;
68050;SDS011;54839;51.364;7.246;2022-09-16T12:43:34;1.57;;;1.00;;
68050;SDS011;54839;51.364;7.246;2022-09-16T12:51:33;1.63;;;1.00;;
68050;SDS011;54839;51.364;7.246;2022-09-16T12:54:21;3.13;;;0.60;;
68050;SDS011;54839;51.364;7.246;2022-09-16T12:57:05;2.47;;;1.10;;
68050;SDS011;54839;51.364;7.246;2022-09-16T13:00:21;2.70;;;0.97;;
68050;SDS011;54839;51.364;7.246;2022-09-16T13:02:54;11.10;;;0.90;;
68050;SDS011;54839;51.364;7.246;2022-09-16T13:05:36;2.00;;;1.00;;
68050;SDS011;54839;51.364;7.246;2022-09-16T13:08:04;4.30;;;1.00;;
68050;SDS011;54839;51.364;7.246;2022-09-16T13:10:35;3.57;;;1.57;;
68050;SDS011;54839;51.364;7.246;2022-09-16T13:13:03;2.17;;;1.00;;
68050;SDS011;54839;51.364;7.246;2022-09-16T13:15:32;2.23;;;1.00;;
68050;SDS011;54839;51.364;7.246;2022-09-16T13:18:19;3.53;;;1.23;;
68050;SDS011;54839;51.364;7.246;2022-09-16T13:20:57;1.67;;;0.93;;
68050;SDS011;54839;51.364;7.246;2022-09-16T13:23:29;2.27;;;1.00;;
68050;SDS011;54839;51.364;7.246;2022-09-16T13:33:37;1.00;;;0.90;;
68050;SDS011;54839;51.364;7.246;2022-09-16T13:36:15;1.00;;;0.80;;
68050;SDS011;54839;51.364;7.246;2022-09-16T13:38:51;1.23;;;1.13;;
68050;SDS011;54839;51.364;7.246;2022-09-16T13:42:08;2.83;;;1.03;;
68050;SDS011;54839;51.364;7.246;2022-09-16T13:49:40;1.60;;;0.93;;
68050;SDS011;54839;51.364;7.246;2022-09-16T13:52:11;2.83;;;1.00;;
68050;SDS011;54839;51.364;7.246;2022-09-16T13:54:52;3.33;;;1.50;;
68050;SDS011;54839;51.364;7.246;2022-09-16T13:57:43;1.50;;;1.00;;
68050;SDS011;54839;51.364;7.246;2022-09-16T14:00:11;3.47;;;1.30;;
68050;SDS011;54839;51.364;7.246;2022-09-16T14:05:35;2.20;;;1.27;;
68050;SDS011;54839;51.364;7.246;2022-09-16T14:13:37;1.83;;;1.47;;
68050;SDS011;54839;51.364;7.246;2022-09-16T14:16:24;4.57;;;1.57;;
68050;SDS011;54839;51.364;7.246;2022-09-16T14:19:04;3.43;;;1.80;;
68050;SDS011;54839;51.364;7.246;2022-09-16T14:21:38;3.73;;;1.67;;
68050;SDS011;54839;51.364;7.246;2022-09-16T14:24:22;3.33;;;1.37;;
68050;SDS011;54839;51.364;7.246;2022-09-16T14:26:51;4.00;;;1.70;;
68050;SDS011;54839;51.364;7.246;2022-09-16T14:29:22;3.47;;;1.33;;
68050;SDS011;54839;51.364;7.246;2022-09-16T14:31:50;1.23;;;1.13;;
68050;SDS011;54839;51.364;7.246;2022-09-16T14:34:38;1.80;;;0.83;;
68050;SDS011;54839;51.364;7.246;2022-09-16T14:37:03;2.20;;;1.30;;
68050;SDS011;54839;51.364;7.246;2022-09-16T14:39:29;2.97;;;2.10;;
68050;SDS011;54839;51.364;7.246;2022-09-16T14:46:58;2.70;;;1.50;;
68050;SDS011;54839;51.364;7.246;2022-09-16T14:49:26;2.60;;;1.43;;
68050;SDS011;54839;51.364;7.246;2022-09-16T14:51:57;2.00;;;1.10;;
68050;SDS011;54839;51.364;7.246;2022-09-16T14:54:28;1.30;;;1.20;;
68050;SDS011;54839;51.364;7.246;2022-09-16T14:56:58;5.30;;;4.80;;
68050;SDS011;54839;51.364;7.246;2022-09-16T14:59:26;4.00;;;1.50;;
68050;SDS011;54839;51.364;7.246;2022-09-16T15:01:55;6.20;;;1.00;;
68050;SDS011;54839;51.364;7.246;2022-09-16T15:04:30;3.17;;;1.27;;
68050;SDS011;54839;51.364;7.246;2022-09-16T15:07:03;4.50;;;1.30;;
68050;SDS011;54839;51.364;7.246;2022-09-16T15:12:17;3.33;;;1.87;;
68050;SDS011;54839;51.364;7.246;2022-09-16T15:14:47;4.00;;;1.70;;
68050;SDS011;54839;51.364;7.246;2022-09-16T15:17:15;2.37;;;1.07;;
68050;SDS011;54839;51.364;7.246;2022-09-16T15:19:43;2.27;;;1.00;;
68050;SDS011;54839;51.364;7.246;2022-09-16T15:22:15;4.53;;;1.70;;
68050;SDS011;54839;51.364;7.246;2022-09-16T15:24:41;2.37;;;1.40;;
68050;SDS011;54839;51.364;7.246;2022-09-16T15:27:09;3.03;;;1.50;;
68050;SDS011;54839;51.364;7.246;2022-09-16T15:29:40;1.50;;;1.17;;
68050;SDS011;54839;51.364;7.246;2022-09-16T15:32:20;2.37;;;1.30;;
68050;SDS011;54839;51.364;7.246;2022-09-16T15:35:02;2.20;;;1.10;;
68050;SDS011;54839;51.364;7.246;2022-09-16T15:37:36;2.87;;;1.83;;
68050;SDS011;54839;51.364;7.246;2022-09-16T15:42:35;2.27;;;0.90;;
68050;SDS011;54839;51.364;7.246;2022-09-16T15:45:01;1.67;;;1.00;;
68050;SDS011;54839;51.364;7.246;2022-09-16T15:47:37;2.47;;;1.37;;
68050;SDS011;54839;51.364;7.246;2022-09-16T15:50:15;4.77;;;1.50;;
68050;SDS011;54839;51.364;7.246;2022-09-16T15:52:55;1.37;;;0.90;;
68050;SDS011;54839;51.364;7.246;2022-09-16T15:57:59;2.23;;;1.00;;
68050;SDS011;54839;51.364;7.246;2022-09-16T16:01:15;1.80;;;0.60;;
68050;SDS011;54839;51.364;7.246;2022-09-16T16:03:46;2.50;;;1.10;;
68050;SDS011;54839;51.364;7.246;2022-09-16T16:06:17;5.17;;;1.33;;
68050;SDS011;54839;51.364;7.246;2022-09-16T16:11:14;2.23;;;0.93;;
68050;SDS011;54839;51.364;7.246;2022-09-16T16:13:42;5.00;;;1.60;;
68050;SDS011;54839;51.364;7.246;2022-09-16T16:16:08;5.90;;;1.97;;
68050;SDS011;54839;51.364;7.246;2022-09-16T16:18:36;6.37;;;1.47;;
68050;SDS011;54839;51.364;7.246;2022-09-16T16:21:09;3.83;;;1.57;;
68050;SDS011;54839;51.364;7.246;2022-09-16T16:23:37;5.30;;;1.30;;
68050;SDS011;54839;51.364;7.246;2022-09-16T16:26:04;4.40;;;1.30;;
68050;SDS011;54839;51.364;7.246;2022-09-16T16:28:31;3.10;;;1.80;;
68050;SDS011;54839;51.364;7.246;2022-09-16T16:31:07;1.90;;;1.40;;
68050;SDS011;54839;51.364;7.246;2022-09-16T16:33:39;2.40;;;1.40;;
68050;SDS011;54839;51.364;7.246;2022-09-16T16:36:06;4.10;;;1.37;;
68050;SDS011;54839;51.364;7.246;2022-09-16T16:38:32;3.27;;;1.57;;
68050;SDS011;54839;51.364;7.246;2022-09-16T16:40:58;8.63;;;1.70;;
68050;SDS011;54839;51.364;7.246;2022-09-16T16:43:24;5.23;;;1.70;;
68050;SDS011;54839;51.364;7.246;2022-09-16T16:45:53;1.17;;;1.00;;
68050;SDS011;54839;51.364;7.246;2022-09-16T16:48:19;3.07;;;1.03;;
68050;SDS011;54839;51.364;7.246;2022-09-16T16:50:53;3.37;;;1.20;;
68050;SDS011;54839;51.364;7.246;2022-09-16T16:53:20;3.53;;;1.20;;
68050;SDS011;54839;51.364;7.246;2022-09-16T16:55:45;3.20;;;1.50;;
68050;SDS011;54839;51.364;7.246;2022-09-16T16:58:11;1.70;;;1.10;;
68050;SDS011;54839;51.364;7.246;2022-09-16T17:00:36;2.57;;;1.40;;
68050;SDS011;54839;51.364;7.246;2022-09-16T17:03:03;1.93;;;1.40;;
68050;SDS011;54839;51.364;7.246;2022-09-16T17:05:29;2.00;;;1.20;;
68050;SDS011;54839;51.364;7.246;2022-09-16T17:07:55;4.63;;;2.23;;
68050;SDS011;54839;51.364;7.246;2022-09-16T17:10:20;8.93;;;3.47;;
68050;SDS011;54839;51.364;7.246;2022-09-16T17:12:47;5.80;;;1.87;;
68050;SDS011;54839;51.364;7.246;2022-09-16T17:15:12;4.20;;;1.67;;
68050;SDS011;54839;51.364;7.246;2022-09-16T17:17:38;4.80;;;1.20;;
68050;SDS011;54839;51.364;7.246;2022-09-16T17:20:04;3.33;;;1.27;;
68050;SDS011;54839;51.364;7.246;2022-09-16T17:22:30;2.50;;;1.50;;
68050;SDS011;54839;51.364;7.246;2022-09-16T17:24:56;5.03;;;2.27;;
68050;SDS011;54839;51.364;7.246;2022-09-16T17:27:22;2.40;;;1.67;;
68050;SDS011;54839;51.364;7.246;2022-09-16T17:29:50;3.07;;;1.07;;
68050;SDS011;54839;51.364;7.246;2022-09-16T17:32:16;4.33;;;1.50;;
68050;SDS011;54839;51.364;7.246;2022-09-16T17:34:42;4.90;;;1.50;;
68050;SDS011;54839;51.364;7.246;2022-09-16T17:37:07;11.27;;;1.97;;
68050;SDS011;54839;51.364;7.246;2022-09-16T17:39:33;3.60;;;1.40;;
68050;SDS011;54839;51.364;7.246;2022-09-16T17:41:59;5.40;;;1.77;;
68050;SDS011;54839;51.364;7.246;2022-09-16T17:44:25;3.50;;;1.50;;
68050;SDS011;54839;51.364;7.246;2022-09-16T17:46:51;7.70;;;2.10;;
68050;SDS011;54839;51.364;7.246;2022-09-16T17:49:20;7.53;;;2.43;;
68050;SDS011;54839;51.364;7.246;2022-09-16T17:51:48;3.97;;;1.20;;
68050;SDS011;54839;51.364;7.246;2022-09-16T17:54:14;6.63;;;2.70;;
68050;SDS011;54839;51.364;7.246;2022-09-16T17:56:40;4.13;;;1.47;;
68050;SDS011;54839;51.364;7.246;2022-09-16T17:59:09;5.87;;;1.67;;
68050;SDS011;54839;51.364;7.246;2022-09-16T18:01:36;3.23;;;1.27;;
68050;SDS011;54839;51.364;7.246;2022-09-16T18:04:02;3.70;;;1.60;;